Time;durP1;ratioP1;P1;durP2;ratioP2;P2;SDS_P1;SDS_P2;PMS_P1;PMS_P2;Temp;Humidity;BMP_temperature;BMP_pressure;BME280_temperature;BME280_humidity;BME280_pressure;Samples;Min_cycle;Max_cycle;Signal;HPM_P1;HPM_P2
2023/01/28 00:01:06;;;;;;;2.87;1.63;;;;;;;2.51;73.40;102416.94;5017851;28;20656;-81
2023/01/28 00:03:32;;;;;;;1.93;0.60;;;;;;;2.55;73.26;102423.13;5018649;28;20206;-80
2023/01/28 00:06:02;;;;;;;1.00;0.60;;;;;;;2.54;72.72;102447.16;5018687;28;20230;-81
2023/01/28 00:08:29;;;;;;;1.37;0.70;;;;;;;2.54;72.26;102458.34;5018335;28;20588;-80
2023/01/28 00:10:58;;;;;;;1.47;0.50;;;;;;;2.47;74.00;102461.44;5017511;28;20313;-80
2023/01/28 00:13:24;;;;;;;0.90;0.70;;;;;;;2.46;74.67;102443.31;5017829;28;20198;-81
2023/01/28 00:15:56;;;;;;;1.20;0.70;;;;;;;2.43;75.85;102404.53;5018625;28;20210;-81
2023/01/28 00:18:24;;;;;;;1.70;0.80;;;;;;;2.42;76.29;102365.00;5018511;28;20207;-81
2023/01/28 00:20:56;;;;;;;2.00;1.00;;;;;;;2.43;76.75;102340.09;5017537;28;20243;-80
2023/01/28 00:23:23;;;;;;;1.17;0.70;;;;;;;2.41;77.00;102318.53;5025964;28;20302;-81
2023/01/28 00:25:49;;;;;;;0.97;0.70;;;;;;;2.43;77.12;102292.00;5018181;28;20207;-81
2023/01/28 00:28:15;;;;;;;1.97;0.70;;;;;;;2.44;76.36;102301.53;5017199;28;20307;-81
2023/01/28 00:30:42;;;;;;;1.47;0.73;;;;;;;2.41;76.65;102311.69;5017653;28;20227;-80
2023/01/28 00:33:09;;;;;;;0.97;0.60;;;;;;;2.45;74.37;102326.47;5018182;28;20203;-81
2023/01/28 00:35:36;;;;;;;1.50;0.70;;;;;;;2.44;73.59;102365.94;5017599;28;20731;-80
2023/01/28 00:38:03;;;;;;;2.03;0.60;;;;;;;2.33;75.35;102390.34;5017947;28;20203;-80
2023/01/28 00:40:29;;;;;;;1.83;0.70;;;;;;;2.35;74.75;102370.69;5016622;28;20295;-80
2023/01/28 00:42:56;;;;;;;1.93;0.80;;;;;;;2.33;75.95;102373.19;5017508;28;20210;-79
2023/01/28 00:45:22;;;;;;;1.57;0.70;;;;;;;2.37;75.54;102358.75;5016208;28;20229;-81
2023/01/28 00:47:48;;;;;;;1.80;0.70;;;;;;;2.32;75.93;102347.34;5018038;28;20230;-80
2023/01/28 00:50:17;;;;;;;3.00;1.23;;;;;;;2.25;76.08;102341.03;5016551;28;20233;-82
2023/01/28 00:52:43;;;;;;;0.70;0.70;;;;;;;2.34;75.71;102326.00;5027380;28;20225;-81
2023/01/28 00:55:10;;;;;;;1.60;0.80;;;;;;;2.42;75.67;102340.91;5037263;28;20209;-80
2023/01/28 00:57:36;;;;;;;3.00;0.80;;;;;;;2.36;75.47;102355.28;5037312;28;20904;-81
2023/01/28 01:00:04;;;;;;;1.77;0.60;;;;;;;2.36;75.24;102349.28;5036340;28;20226;-81
2023/01/28 01:02:31;;;;;;;0.80;0.50;;;;;;;2.33;74.80;102347.41;5037048;28;20210;-81
2023/01/28 01:05:00;;;;;;;2.23;0.80;;;;;;;2.36;74.85;102368.19;5037168;28;20226;-80
2023/01/28 01:07:40;;;;;;;1.87;0.80;;;;;;;2.35;74.08;102387.00;5037034;28;20201;-80
2023/01/28 01:10:08;;;;;;;2.27;0.63;;;;;;;2.36;73.55;102408.53;5035884;28;20257;-80
2023/01/28 01:12:34;;;;;;;6.77;0.70;;;;;;;2.32;73.93;102425.53;5036484;28;20286;-81
2023/01/28 01:15:01;;;;;;;1.23;0.60;;;;;;;2.29;74.28;102415.06;5037013;28;20207;-81
2023/01/28 01:17:30;;;;;;;1.97;0.63;;;;;;;2.29;73.87;102416.78;5037121;28;20230;-80
2023/01/28 01:19:56;;;;;;;0.60;0.60;;;;;;;2.27;74.54;102418.41;5035357;28;20239;-78
2023/01/28 01:22:23;;;;;;;1.93;0.60;;;;;;;2.27;74.25;102408.09;5025859;28;20280;-80
2023/01/28 01:24:50;;;;;;;2.27;0.80;;;;;;;2.21;74.71;102397.50;5035794;28;20256;-81
2023/01/28 01:30:27;;;;;;;1.20;0.50;;;;;;;2.19;76.16;102346.78;5999580;22;20232;-79
2023/01/28 01:32:53;;;;;;;1.20;0.67;;;;;;;2.23;74.85;102357.25;5026234;28;20699;-81
2023/01/28 01:35:20;;;;;;;2.30;0.60;;;;;;;2.22;74.87;102358.94;5049951;28;20205;-81
2023/01/28 01:37:46;;;;;;;0.60;0.50;;;;;;;2.22;75.57;102358.94;5056570;28;20247;-81
2023/01/28 01:40:14;;;;;;;1.33;0.70;;;;;;;2.18;76.26;102347.59;5056503;28;20264;-80
2023/01/28 01:42:40;;;;;;;1.50;0.70;;;;;;;2.18;76.63;102329.56;5056429;28;20213;-81
2023/01/28 01:45:12;;;;;;;1.00;0.57;;;;;;;2.21;76.13;102312.50;5065306;22;20592;-81
2023/01/28 01:47:44;;;;;;;1.70;0.60;;;;;;;2.17;76.47;102317.50;5034338;28;20202;-79
2023/01/28 01:50:19;;;;;;;1.13;0.73;;;;;;;2.23;75.14;102322.03;5032468;28;20272;-81
2023/01/28 01:52:47;;;;;;;2.13;0.80;;;;;;;2.26;73.37;102354.78;5033196;28;20710;-81
2023/01/28 01:55:21;;;;;;;1.90;0.67;;;;;;;2.26;73.76;102388.28;5033460;28;20275;-81
2023/01/28 01:57:50;;;;;;;3.90;0.70;;;;;;;2.25;72.87;102412.28;5033043;28;20252;-81
2023/01/28 02:00:17;;;;;;;1.23;0.60;;;;;;;2.16;73.63;102421.38;5032997;28;20237;-79
2023/01/28 02:02:46;;;;;;;0.90;0.70;;;;;;;2.19;73.63;102428.34;5033302;28;20242;-79
2023/01/28 02:05:15;;;;;;;1.37;0.80;;;;;;;2.23;73.96;102422.53;5031909;28;20261;-80
2023/01/28 02:07:44;;;;;;;1.40;0.60;;;;;;;2.22;74.05;102432.75;5032650;28;20686;-80
2023/01/28 02:10:12;;;;;;;1.07;0.80;;;;;;;2.23;73.31;102437.09;5032115;28;20237;-80
2023/01/28 02:12:43;;;;;;;3.30;1.07;;;;;;;2.21;73.04;102439.59;5032874;28;20202;-81
2023/01/28 02:15:12;;;;;;;1.67;0.70;;;;;;;2.20;72.60;102461.03;5033191;28;20226;-81
2023/01/28 02:17:40;;;;;;;1.23;0.80;;;;;;;2.16;73.98;102467.72;5032905;28;20229;-81
2023/01/28 02:20:09;;;;;;;2.50;0.87;;;;;;;2.17;73.82;102448.00;5033216;28;20236;-79
2023/01/28 02:23:05;;;;;;;0.70;0.70;;;;;;;2.21;74.26;102443.88;5031440;28;20256;-80
2023/01/28 02:25:49;;;;;;;0.90;0.67;;;;;;;2.11;75.29;102427.97;5032304;28;20261;-80
2023/01/28 02:28:34;;;;;;;2.90;0.97;;;;;;;2.11;74.85;102412.53;5033011;28;20685;-81
2023/01/28 02:31:08;;;;;;;0.90;0.50;;;;;;;2.06;74.38;102414.00;5032457;28;20210;-81
2023/01/28 02:33:40;;;;;;;1.13;0.70;;;;;;;2.12;74.25;102414.31;5033250;28;20240;-77
2023/01/28 02:36:17;;;;;;;1.17;0.70;;;;;;;2.15;73.83;102423.84;5033185;28;20264;-81
2023/01/28 02:38:47;;;;;;;3.00;0.77;;;;;;;2.19;73.05;102443.81;5033116;28;20293;-80
2023/01/28 02:41:21;;;;;;;4.27;0.67;;;;;;;2.08;74.00;102456.19;5031409;28;20660;-81
2023/01/28 02:43:49;;;;;;;2.80;0.60;;;;;;;2.01;74.18;102432.63;5030875;28;20245;-81
2023/01/28 02:49:08;;;;;;;1.93;0.80;;;;;;;2.09;72.98;102445.06;5032558;28;20205;-80
2023/01/28 02:51:48;;;;;;;0.50;0.40;;;;;;;2.08;73.43;102437.25;5032904;28;20237;-80
2023/01/28 02:54:19;;;;;;;0.60;0.60;;;;;;;1.99;73.71;102448.88;5032272;28;20663;-81
2023/01/28 02:56:53;;;;;;;1.83;0.70;;;;;;;2.07;72.63;102436.38;5032123;28;20248;-80
2023/01/28 02:59:32;;;;;;;1.37;0.83;;;;;;;2.05;73.05;102453.44;5031679;28;20229;-80
2023/01/28 03:02:04;;;;;;;0.97;0.80;;;;;;;2.04;73.01;102446.50;5032110;28;20245;-81
2023/01/28 03:04:36;;;;;;;1.03;0.53;;;;;;;1.99;74.20;102436.00;5032415;28;22139;-80
2023/01/28 03:07:06;;;;;;;0.80;0.80;;;;;;;2.06;73.62;102424.31;5032902;28;20230;-80
2023/01/28 03:09:33;;;;;;;1.27;0.67;;;;;;;2.12;72.96;102439.16;5032374;28;20706;-81
2023/01/28 03:37:13;;;;;;;1.33;0.70;;;;;;;2.05;73.44;102414.81;5035859;28;20213;-81
2023/01/28 03:39:40;;;;;;;1.03;0.73;;;;;;;1.96;74.24;102419.50;5036175;28;20260;-81
2023/01/28 03:42:10;;;;;;;0.97;0.70;;;;;;;1.98;74.38;102398.19;5035329;28;20236;-81
2023/01/28 03:44:49;;;;;;;1.73;0.77;;;;;;;1.97;75.10;102390.38;5035481;28;20592;-81
2023/01/28 03:47:17;;;;;;;1.23;0.93;;;;;;;1.97;76.57;102356.91;5035779;28;20229;-80
2023/01/28 03:49:47;;;;;;;0.50;0.50;;;;;;;1.99;76.27;102326.94;5033867;28;20249;-80
2023/01/28 03:52:15;;;;;;;1.50;0.80;;;;;;;1.96;76.24;102327.69;5027518;28;20659;-81
2023/01/28 03:54:41;;;;;;;1.17;0.70;;;;;;;1.91;76.58;102299.97;5034844;28;20218;-81
2023/01/28 03:57:08;;;;;;;1.00;0.70;;;;;;;1.91;75.29;102316.28;5034505;28;20210;-80
2023/01/28 03:59:34;;;;;;;0.70;0.70;;;;;;;1.96;75.82;102314.81;5034916;28;20242;-81
2023/01/28 04:02:02;;;;;;;1.23;1.00;;;;;;;1.95;76.27;102304.44;5035234;28;20242;-80
2023/01/28 04:04:31;;;;;;;3.63;0.87;;;;;;;1.99;75.64;102312.38;5035073;28;20320;-81
2023/01/28 04:06:58;;;;;;;1.53;0.90;;;;;;;1.97;74.60;102334.59;5034312;28;20228;-81
2023/01/28 04:09:24;;;;;;;2.50;0.70;;;;;;;2.02;73.85;102365.72;5034822;28;20210;-81
2023/01/28 04:11:51;;;;;;;1.03;0.80;;;;;;;1.96;73.54;102391.19;5035287;28;20285;-81
2023/01/28 04:14:18;;;;;;;3.23;1.00;;;;;;;1.91;75.03;102379.78;5034988;28;20253;-81
2023/01/28 04:16:44;;;;;;;1.07;0.60;;;;;;;1.87;76.89;102349.56;5035488;28;20290;-80
2023/01/28 04:19:12;;;;;;;0.70;0.70;;;;;;;1.89;76.10;102338.50;5035156;28;20258;-81
2023/01/28 04:21:40;;;;;;;2.73;0.80;;;;;;;1.89;76.04;102341.09;5035343;28;20314;-81
2023/01/28 04:24:08;;;;;;;2.97;1.00;;;;;;;1.97;76.12;102334.59;5034225;28;20226;-80
2023/01/28 04:26:34;;;;;;;1.67;0.67;;;;;;;1.92;76.69;102335.19;5048314;28;20222;-80
2023/01/28 04:29:00;;;;;;;0.80;0.60;;;;;;;1.95;77.69;102305.31;5044606;28;20627;-79
2023/01/28 04:31:27;;;;;;;1.53;0.53;;;;;;;1.99;78.57;102284.03;5034661;28;20699;-81
2023/01/28 04:33:53;;;;;;;0.77;0.70;;;;;;;1.94;78.49;102256.31;5034925;28;20234;-81
2023/01/28 04:36:19;;;;;;;1.13;0.70;;;;;;;1.89;78.43;102247.50;5034897;28;20226;-81
2023/01/28 04:38:47;;;;;;;2.17;1.03;;;;;;;1.87;77.19;102247.44;5034652;28;20240;-81
2023/01/28 04:41:14;;;;;;;2.47;1.53;;;;;;;1.85;77.02;102266.22;5031021;28;20412;-81
2023/01/28 04:43:40;;;;;;;2.13;1.50;;;;;;;1.88;75.20;102297.22;5034536;28;20247;-81
2023/01/28 04:46:06;;;;;;;1.37;1.13;;;;;;;1.88;74.45;102343.56;5034922;28;20255;-81
2023/01/28 04:48:35;;;;;;;1.30;0.80;;;;;;;1.97;72.33;102380.97;5034061;28;20229;-81
2023/01/28 04:51:01;;;;;;;0.90;0.90;;;;;;;1.92;70.65;102446.81;5034309;28;20263;-81
2023/01/28 04:53:28;;;;;;;1.60;0.90;;;;;;;1.98;71.04;102496.06;5034474;28;20253;-81
2023/01/28 04:55:56;;;;;;;1.97;0.90;;;;;;;2.04;70.50;102522.91;5034580;28;20250;-81
2023/01/28 04:58:22;;;;;;;1.03;0.70;;;;;;;2.08;69.92;102550.59;5034401;28;20622;-81
2023/01/28 05:00:54;;;;;;;2.00;0.90;;;;;;;2.09;69.83;102563.53;5032992;28;20309;-81
2023/01/28 05:03:20;;;;;;;2.10;1.73;;;;;;;2.09;68.54;102594.47;5034105;28;20214;-80
2023/01/28 05:05:46;;;;;;;2.10;0.87;;;;;;;1.99;68.00;102631.75;5034371;28;20268;-81
2023/01/28 05:08:13;;;;;;;2.40;0.80;;;;;;;1.99;68.41;102644.63;5033777;28;20234;-81
2023/01/28 05:10:39;;;;;;;1.37;0.90;;;;;;;2.05;68.27;102669.81;5033575;28;20206;-80
2023/01/28 05:13:07;;;;;;;2.17;1.10;;;;;;;2.01;68.24;102685.91;5034411;28;20210;-81
2023/01/28 05:15:34;;;;;;;0.70;0.70;;;;;;;1.99;68.04;102696.13;5034345;28;20227;-80
2023/01/28 05:18:00;;;;;;;1.67;0.70;;;;;;;1.96;68.90;102677.97;5034329;28;20238;-81
2023/01/28 05:20:26;;;;;;;1.80;1.10;;;;;;;1.64;65.94;102691.66;5034372;28;20241;-81
2023/01/28 05:22:53;;;;;;;1.23;0.90;;;;;;;1.75;67.74;102730.88;5033060;28;20234;-79
2023/01/28 05:25:19;;;;;;;2.60;0.90;;;;;;;1.89;68.49;102724.78;5033541;28;20649;-81
2023/01/28 05:27:49;;;;;;;1.50;0.80;;;;;;;1.97;68.50;102712.31;5033803;28;20706;-81
2023/01/28 05:30:17;;;;;;;1.30;1.20;;;;;;;2.05;67.83;102703.31;5034018;28;20202;-81
2023/01/28 05:32:44;;;;;;;2.80;0.90;;;;;;;2.10;68.02;102698.38;5033934;28;20242;-81
2023/01/28 05:35:10;;;;;;;0.63;0.60;;;;;;;1.98;67.83;102696.03;5033744;28;20266;-81
2023/01/28 05:37:36;;;;;;;0.80;0.60;;;;;;;1.95;67.81;102711.34;5033671;28;20229;-81
2023/01/28 05:40:03;;;;;;;1.27;0.60;;;;;;;2.03;66.90;102724.63;5031283;28;20233;-81
2023/01/28 05:42:29;;;;;;;1.00;0.83;;;;;;;1.91;66.67;102730.91;5033087;28;20629;-81
2023/01/28 05:44:56;;;;;;;1.33;0.90;;;;;;;1.90;66.78;102724.00;5032595;28;20272;-81
2023/01/28 05:47:23;;;;;;;1.30;0.70;;;;;;;1.97;67.40;102730.34;5033462;28;20214;-81
2023/01/28 05:49:50;;;;;;;0.90;0.80;;;;;;;2.03;67.21;102719.50;5033501;28;20210;-81
2023/01/28 05:52:16;;;;;;;1.60;0.63;;;;;;;2.03;67.40;102715.22;5033520;28;20584;-80
2023/01/28 05:54:43;;;;;;;1.30;0.67;;;;;;;2.04;67.66;102716.97;5032837;28;20669;-80
2023/01/28 05:57:09;;;;;;;1.37;1.00;;;;;;;1.91;69.15;102702.56;5031441;28;20198;-81
2023/01/28 05:59:36;;;;;;;1.30;0.63;;;;;;;1.98;69.07;102683.16;5032852;28;20668;-80
2023/01/28 06:02:02;;;;;;;1.17;0.90;;;;;;;2.01;67.62;102673.03;5033454;28;20242;-81
2023/01/28 06:04:30;;;;;;;1.50;0.80;;;;;;;1.96;68.01;102683.09;5033446;28;20261;-81
2023/01/28 06:06:56;;;;;;;0.70;0.70;;;;;;;1.94;68.59;102677.00;5033229;28;20258;-80
2023/01/28 06:09:22;;;;;;;0.80;0.70;;;;;;;1.97;67.94;102668.53;5033222;28;20246;-80
2023/01/28 06:11:49;;;;;;;1.10;0.63;;;;;;;1.92;69.37;102664.81;5033419;28;20276;-81
2023/01/28 06:14:16;;;;;;;1.10;0.80;;;;;;;1.95;68.87;102657.28;5032339;28;20233;-81
2023/01/28 06:16:42;;;;;;;0.83;0.70;;;;;;;1.97;66.16;102643.66;5033032;28;20205;-81
2023/01/28 06:19:09;;;;;;;1.13;0.93;;;;;;;1.95;65.27;102694.19;5032903;28;20206;-80
2023/01/28 06:21:36;;;;;;;0.70;0.70;;;;;;;1.90;66.49;102725.66;5033648;28;20240;-81
2023/01/28 06:24:03;;;;;;;0.80;0.77;;;;;;;1.93;66.66;102706.13;5033078;28;20269;-81
2023/01/28 06:26:29;;;;;;;2.87;1.10;;;;;;;1.99;66.69;102718.44;5033794;28;20322;-81
2023/01/28 06:28:56;;;;;;;0.63;0.60;;;;;;;2.02;66.28;102736.59;5033567;28;20249;-81
2023/01/28 06:31:22;;;;;;;0.97;0.97;;;;;;;2.02;65.21;102740.88;5033695;28;20440;-81
2023/01/28 06:33:48;;;;;;;0.80;0.80;;;;;;;1.96;67.89;102751.75;5031518;28;20232;-80
2023/01/28 06:36:15;;;;;;;2.70;0.83;;;;;;;1.97;66.47;102715.78;5033502;28;20240;-80
2023/01/28 06:38:42;;;;;;;0.87;0.80;;;;;;;1.97;66.44;102722.63;5033244;28;20239;-80
2023/01/28 06:41:09;;;;;;;0.90;0.63;;;;;;;1.94;66.89;102718.19;5033576;28;20835;-81
2023/01/28 06:43:35;;;;;;;4.93;0.77;;;;;;;1.91;67.32;102727.44;5033283;28;20233;-81
2023/01/28 06:46:01;;;;;;;1.27;0.80;;;;;;;1.90;68.31;102718.84;5033982;28;20712;-81
2023/01/28 06:48:28;;;;;;;1.47;0.90;;;;;;;1.81;67.87;102682.28;5033870;28;20749;-81
2023/01/28 06:50:54;;;;;;;1.10;0.90;;;;;;;1.79;66.43;102681.31;5031961;28;20205;-80
2023/01/28 06:53:21;;;;;;;2.30;0.90;;;;;;;1.83;66.57;102695.25;5033428;28;20236;-81
2023/01/28 06:55:49;;;;;;;1.07;0.80;;;;;;;1.78;68.08;102692.41;5033972;28;20591;-81
2023/01/28 06:58:16;;;;;;;2.23;1.10;;;;;;;1.84;67.72;102681.56;5033813;28;20210;-81
2023/01/28 07:00:42;;;;;;;1.13;1.00;;;;;;;1.84;67.03;102679.84;5034039;28;20230;-81
2023/01/28 07:03:09;;;;;;;1.43;1.00;;;;;;;1.82;67.52;102696.03;5033332;28;20263;-81
2023/01/28 07:05:35;;;;;;;2.43;0.80;;;;;;;1.92;67.17;102673.47;5034073;28;20254;-81
2023/01/28 07:08:02;;;;;;;4.03;1.40;;;;;;;1.72;65.29;102694.66;5032593;28;20260;-81
2023/01/28 07:10:28;;;;;;;2.17;1.60;;;;;;;1.77;66.33;102724.13;5034712;28;20620;-81
2023/01/28 07:12:56;;;;;;;1.40;1.10;;;;;;;1.84;66.29;102722.75;5036959;28;20648;-81
2023/01/28 07:15:23;;;;;;;1.77;1.23;;;;;;;1.79;68.05;102717.38;5037265;28;20226;-81
2023/01/28 07:17:49;;;;;;;2.23;1.30;;;;;;;1.76;68.75;102699.16;5037154;28;20237;-81
2023/01/28 07:20:16;;;;;;;3.90;1.67;;;;;;;1.81;69.93;102663.41;5036658;28;20238;-81
2023/01/28 07:22:43;;;;;;;2.13;1.83;;;;;;;1.84;69.56;102633.50;5036956;28;20248;-80
2023/01/28 07:25:12;;;;;;;2.93;2.20;;;;;;;1.90;70.78;102608.09;5035525;28;20742;-81
2023/01/28 07:27:38;;;;;;;5.63;2.70;;;;;;;1.80;71.74;102572.38;5036287;28;20299;-81
2023/01/28 07:30:07;;;;;;;2.63;1.40;;;;;;;1.84;70.63;102550.25;5035950;28;20746;-81
2023/01/28 07:32:33;;;;;;;4.73;1.40;;;;;;;1.90;69.43;102566.00;5036678;28;20279;-81
2023/01/28 07:35:00;;;;;;;3.83;2.03;;;;;;;1.82;68.93;102585.31;5035828;28;20695;-81
2023/01/28 07:37:26;;;;;;;2.70;1.43;;;;;;;1.75;69.66;102597.00;5036462;28;20229;-81
2023/01/28 07:39:52;;;;;;;1.23;0.93;;;;;;;1.78;68.91;102587.75;5036013;28;20237;-81
2023/01/28 07:42:18;;;;;;;1.50;1.27;;;;;;;1.80;69.39;102598.09;5036691;28;20233;-81
2023/01/28 07:44:45;;;;;;;2.90;1.40;;;;;;;1.75;69.29;102592.72;5049854;22;20310;-81
2023/01/28 07:47:12;;;;;;;1.43;1.33;;;;;;;1.84;67.87;102618.06;5041042;28;20738;-82
2023/01/28 07:49:39;;;;;;;2.30;1.40;;;;;;;1.86;67.54;102643.91;5038887;28;20760;-81
2023/01/28 07:52:05;;;;;;;1.27;1.10;;;;;;;1.88;67.78;102656.03;5041606;28;20214;-82
2023/01/28 07:54:32;;;;;;;3.50;1.00;;;;;;;1.96;67.88;102653.88;5040821;28;20632;-82
2023/01/28 07:56:58;;;;;;;1.73;1.10;;;;;;;1.82;69.51;102658.28;5041100;28;20228;-81
2023/01/28 07:59:24;;;;;;;1.77;1.10;;;;;;;1.91;68.16;102634.75;5041668;28;20210;-82
2023/01/28 08:01:51;;;;;;;1.50;1.00;;;;;;;1.90;67.68;102657.03;5041717;28;20207;-82
2023/01/28 08:04:19;;;;;;;3.07;1.10;;;;;;;1.87;68.71;102654.28;5042001;28;20210;-81
2023/01/28 08:06:45;;;;;;;1.57;1.13;;;;;;;1.91;69.06;102639.88;5042424;28;20234;-82
2023/01/28 08:09:12;;;;;;;2.00;1.07;;;;;;;1.88;69.99;102630.28;5042048;28;20220;-82
2023/01/28 08:11:39;;;;;;;3.23;1.33;;;;;;;1.81;69.60;102627.34;5042676;28;20618;-82
2023/01/28 08:14:05;;;;;;;1.07;0.87;;;;;;;1.93;69.08;102627.97;5042398;28;20202;-80
2023/01/28 08:16:32;;;;;;;2.00;1.00;;;;;;;1.96;69.81;102633.25;5042072;28;20256;-82
2023/01/28 08:18:58;;;;;;;1.40;1.00;;;;;;;1.93;67.12;102599.66;5041385;28;20248;-80
2023/01/28 08:21:26;;;;;;;1.23;0.70;;;;;;;1.67;64.52;102673.84;5039966;28;20571;-82
2023/01/28 08:23:53;;;;;;;2.20;0.80;;;;;;;1.77;65.61;102727.59;5041784;28;20268;-82
2023/01/28 08:26:19;;;;;;;1.67;0.83;;;;;;;1.75;65.00;102736.03;5042605;28;20230;-82
2023/01/28 08:28:46;;;;;;;1.57;1.00;;;;;;;1.50;64.13;102781.00;5042475;28;20217;-82
2023/01/28 08:31:12;;;;;;;0.83;0.83;;;;;;;1.61;65.97;102788.47;5041370;28;20210;-82
2023/01/28 08:33:38;;;;;;;2.03;1.10;;;;;;;1.74;67.44;102786.63;5041827;28;20207;-83
2023/01/28 08:36:06;;;;;;;1.63;0.80;;;;;;;1.73;64.95;102769.41;5041539;28;20355;-82
2023/01/28 08:38:33;;;;;;;1.70;1.20;;;;;;;1.32;62.54;102831.44;5042265;28;20272;-83
2023/01/28 08:41:00;;;;;;;0.97;0.80;;;;;;;1.21;62.78;102863.34;5041354;28;20213;-82
2023/01/28 08:43:26;;;;;;;1.50;0.93;;;;;;;1.38;63.46;102886.69;5041207;28;20305;-82
2023/01/28 08:45:52;;;;;;;2.07;0.87;;;;;;;1.49;63.81;102873.59;5041098;28;20233;-83
2023/01/28 08:48:19;;;;;;;2.50;0.93;;;;;;;1.66;64.29;102879.69;5041317;28;20727;-83
2023/01/28 08:50:46;;;;;;;1.20;1.10;;;;;;;1.82;64.58;102878.88;5041240;28;20575;-82
2023/01/28 08:53:14;;;;;;;1.17;0.93;;;;;;;1.75;63.79;102872.50;5040799;28;20220;-82
2023/01/28 08:55:41;;;;;;;1.17;0.80;;;;;;;1.56;63.52;102886.00;5041688;28;20777;-82
2023/01/28 08:58:11;;;;;;;3.27;1.10;;;;;;;1.54;64.08;102892.75;5042130;28;20202;-82
2023/01/28 09:00:37;;;;;;;1.50;1.23;;;;;;;1.70;64.31;102890.22;5041599;28;20268;-82
2023/01/28 09:03:05;;;;;;;1.30;1.20;;;;;;;1.84;64.81;102878.16;5041290;28;20217;-82
2023/01/28 09:05:32;;;;;;;1.40;0.90;;;;;;;1.84;63.06;102877.25;5041338;28;20222;-81
2023/01/28 09:08:00;;;;;;;1.33;1.27;;;;;;;1.79;62.83;102915.63;5040868;28;20226;-82
2023/01/28 09:10:27;;;;;;;1.07;1.00;;;;;;;1.80;63.18;102938.00;5040491;28;20221;-81
2023/01/28 09:12:54;;;;;;;1.07;0.83;;;;;;;1.94;64.16;102938.78;5040803;28;20676;-82
2023/01/28 09:15:21;;;;;;;1.03;0.83;;;;;;;2.04;63.69;102929.91;5041201;28;20226;-83
2023/01/28 09:17:47;;;;;;;1.13;0.80;;;;;;;2.14;62.54;102934.75;5041410;28;20209;-83
2023/01/28 09:20:14;;;;;;;3.07;1.30;;;;;;;1.87;61.49;102942.72;5040332;28;20198;-83
2023/01/28 09:22:40;;;;;;;1.83;1.20;;;;;;;1.78;61.97;102971.41;5041130;28;20583;-82
2023/01/28 09:25:07;;;;;;;3.57;1.70;;;;;;;1.84;63.05;102975.13;5042028;28;20310;-83
2023/01/28 09:27:33;;;;;;;1.00;1.00;;;;;;;1.74;62.43;102982.31;5040802;28;20598;-82
2023/01/28 09:30:01;;;;;;;1.50;1.10;;;;;;;1.56;61.75;102989.84;5041466;28;20208;-84
2023/01/28 09:32:27;;;;;;;2.47;1.10;;;;;;;1.64;62.17;102984.25;5040381;28;20260;-83
2023/01/28 09:34:54;;;;;;;1.63;1.30;;;;;;;1.73;61.79;102998.56;5037181;28;20716;-80
2023/01/28 09:37:20;;;;;;;1.43;1.03;;;;;;;1.66;61.55;103023.84;5037425;28;20233;-82
2023/01/28 09:39:47;;;;;;;3.83;1.43;;;;;;;1.77;61.70;103056.28;5036895;28;20206;-81
2023/01/28 09:42:39;;;;;;;2.53;2.30;;;;;;;1.97;64.08;103060.03;5037744;28;20206;-81
2023/01/28 09:45:15;;;;;;;1.30;1.10;;;;;;;2.16;65.65;103001.06;5027775;28;20239;-82
2023/01/28 09:47:44;;;;;;;1.80;1.30;;;;;;;1.97;63.94;102965.63;5039283;28;20286;-82
2023/01/28 09:50:15;;;;;;;1.33;1.20;;;;;;;1.98;63.93;102962.25;5038962;28;20198;-82
2023/01/28 09:52:42;;;;;;;1.50;1.40;;;;;;;1.99;64.63;102955.41;5040486;28;20225;-81
2023/01/28 09:55:19;;;;;;;2.33;1.37;;;;;;;2.08;67.33;102924.09;5038664;28;20223;-79
2023/01/28 09:57:50;;;;;;;2.37;1.40;;;;;;;2.27;68.52;102861.63;5037853;28;20668;-79
2023/01/28 10:00:21;;;;;;;1.47;1.20;;;;;;;2.38;67.42;102817.56;5038989;28;20205;-81
2023/01/28 10:03:11;;;;;;;1.83;1.73;;;;;;;2.28;64.84;102840.16;5036119;28;20234;-82
2023/01/28 10:05:50;;;;;;;1.93;1.53;;;;;;;2.24;65.73;102874.31;5038393;28;20229;-82
2023/01/28 10:08:27;;;;;;;1.83;1.67;;;;;;;2.04;65.12;102880.94;5038857;28;20233;-81
2023/01/28 10:11:02;;;;;;;2.23;2.07;;;;;;;1.39;64.21;102903.06;5036932;28;20195;-83
2023/01/28 10:13:38;;;;;;;3.53;2.60;;;;;;;1.51;65.19;102913.19;5037512;28;20210;-82
2023/01/28 10:16:23;;;;;;;3.23;1.50;;;;;;;1.83;69.15;102897.00;5036287;28;20225;-82
2023/01/28 10:18:53;;;;;;;2.30;1.77;;;;;;;2.01;66.44;102825.00;5037248;28;20204;-83
2023/01/28 10:21:25;;;;;;;3.27;2.93;;;;;;;1.98;65.86;102820.59;5038608;28;20580;-79
2023/01/28 10:23:59;;;;;;;2.00;1.90;;;;;;;2.05;66.81;102829.53;5038294;28;20198;-82
2023/01/28 10:26:32;;;;;;;2.63;1.83;;;;;;;2.04;65.42;102835.47;5035401;28;20275;-81
2023/01/28 10:29:04;;;;;;;2.33;1.80;;;;;;;2.25;66.54;102828.03;5037519;28;20201;-81
2023/01/28 10:31:37;;;;;;;8.20;6.27;;;;;;;1.91;65.80;102830.47;5038480;28;20206;-82
2023/01/28 10:34:04;;;;;;;4.37;3.00;;;;;;;2.04;66.38;102820.00;5035728;28;20202;-81
2023/01/28 10:36:31;;;;;;;1.97;1.60;;;;;;;2.28;68.69;102797.28;5038695;28;20218;-82
2023/01/28 10:38:58;;;;;;;1.97;1.67;;;;;;;2.34;66.40;102755.50;5039857;28;20268;-81
2023/01/28 10:41:25;;;;;;;1.77;1.60;;;;;;;2.26;63.97;102772.22;5036292;28;20202;-81
2023/01/28 10:43:52;;;;;;;2.83;1.83;;;;;;;1.82;64.45;102829.94;5035989;28;20665;-82
2023/01/28 10:46:22;;;;;;;2.90;2.27;;;;;;;1.90;66.57;102831.25;5039004;28;20252;-79
2023/01/28 10:48:57;;;;;;;2.67;2.27;;;;;;;1.96;66.51;102809.31;5040278;28;20237;-80
2023/01/28 10:51:31;;;;;;;3.10;1.90;;;;;;;1.85;66.15;102800.09;5040538;28;20201;-81
2023/01/28 10:53:57;;;;;;;4.23;1.93;;;;;;;1.88;65.45;102805.41;5040469;28;20212;-81
2023/01/28 10:56:27;;;;;;;2.57;2.37;;;;;;;1.90;65.33;102814.13;5040127;28;20820;-81
2023/01/28 10:58:59;;;;;;;2.20;1.93;;;;;;;1.87;65.59;102824.25;5041211;28;20217;-81
2023/01/28 11:01:37;;;;;;;2.50;2.20;;;;;;;1.59;66.07;102833.00;5039401;28;20268;-80
2023/01/28 11:04:06;;;;;;;2.70;2.50;;;;;;;1.68;65.77;102844.63;5040162;28;20688;-78
2023/01/28 11:06:32;;;;;;;2.40;2.20;;;;;;;1.57;66.08;102844.03;5040681;28;20590;-81
2023/01/28 11:08:58;;;;;;;2.03;1.83;;;;;;;1.60;65.49;102849.34;5040731;28;20253;-79
2023/01/28 11:11:27;;;;;;;2.33;1.97;;;;;;;1.52;65.56;102851.47;5040324;28;20209;-81
2023/01/28 11:13:57;;;;;;;2.23;2.10;;;;;;;1.66;66.46;102843.66;5039945;28;20249;-81
2023/01/28 11:16:25;;;;;;;3.13;2.57;;;;;;;1.54;66.13;102839.56;5039111;28;20730;-81
2023/01/28 11:18:54;;;;;;;2.40;2.20;;;;;;;1.53;65.37;102832.66;5039876;28;20206;-80
2023/01/28 11:21:24;;;;;;;2.37;2.17;;;;;;;1.53;65.32;102849.81;5039045;28;20202;-79
2023/01/28 11:23:53;;;;;;;2.70;2.33;;;;;;;1.55;66.40;102863.66;5040144;28;20202;-81
2023/01/28 11:26:23;;;;;;;2.97;2.40;;;;;;;1.58;66.04;102843.22;5039830;28;20225;-81
2023/01/28 11:28:51;;;;;;;3.37;2.67;;;;;;;1.63;66.28;102846.06;5039962;28;20777;-80
2023/01/28 11:31:18;;;;;;;2.50;2.30;;;;;;;1.65;66.74;102829.00;5039382;28;20209;-81
2023/01/28 11:33:50;;;;;;;2.40;2.20;;;;;;;1.55;66.24;102832.75;5040188;28;20210;-80
2023/01/28 11:36:18;;;;;;;2.87;2.60;;;;;;;1.35;66.16;102845.38;5039480;28;20229;-81
2023/01/28 11:38:54;;;;;;;3.10;2.90;;;;;;;1.44;65.38;102829.56;5038849;28;20210;-81
2023/01/28 11:41:27;;;;;;;3.40;3.03;;;;;;;1.30;65.78;102839.06;5039269;28;20256;-81
2023/01/28 11:43:53;;;;;;;4.17;3.87;;;;;;;1.36;65.49;102835.97;5039310;28;20679;-81
2023/01/28 11:46:46;;;;;;;3.87;3.57;;;;;;;1.41;65.48;102839.69;5039158;28;20295;-80
2023/01/28 11:49:24;;;;;;;6.33;5.90;;;;;;;1.39;65.21;102852.47;5039051;28;20222;-80
2023/01/28 11:51:59;;;;;;;5.50;5.10;;;;;;;1.59;65.81;102843.31;5038443;28;20202;-81
2023/01/28 11:54:41;;;;;;;3.13;2.83;;;;;;;1.09;65.07;102846.44;5039076;28;20205;-81
2023/01/28 11:57:22;;;;;;;3.93;3.17;;;;;;;1.17;65.39;102824.63;5038707;28;20206;-81
2023/01/28 12:00:03;;;;;;;8.13;4.90;;;;;;;1.35;65.80;102824.78;5038283;28;20212;-80
2023/01/28 12:02:49;;;;;;;5.83;5.33;;;;;;;1.64;67.17;102791.19;5039181;28;20186;-81
2023/01/28 12:05:36;;;;;;;4.97;4.47;;;;;;;1.82;65.01;102778.44;5040427;28;20222;-79
2023/01/28 12:08:09;;;;;;;2.77;2.50;;;;;;;1.74;63.83;102819.22;5040644;28;20275;-80
2023/01/28 12:10:48;;;;;;;5.37;3.00;;;;;;;1.67;63.49;102841.16;5039648;28;20214;-80
2023/01/28 12:13:29;;;;;;;3.20;2.90;;;;;;;1.24;64.63;102853.25;5040571;28;20205;-79